sensor_id;sensor_type;location;lat;lon;timestamp;temperature;humidity
31677;DHT22;18385;51.572;6.578;2022-09-28T00:02:03;11.90;69.10
31677;DHT22;18385;51.572;6.578;2022-09-28T00:04:29;11.80;69.20
31677;DHT22;18385;51.572;6.578;2022-09-28T00:06:55;11.90;69.30
31677;DHT22;18385;51.572;6.578;2022-09-28T00:09:20;11.90;69.40
31677;DHT22;18385;51.572;6.578;2022-09-28T00:11:46;11.90;69.30
31677;DHT22;18385;51.572;6.578;2022-09-28T00:14:12;11.90;69.30
31677;DHT22;18385;51.572;6.578;2022-09-28T00:16:42;11.80;69.20
31677;DHT22;18385;51.572;6.578;2022-09-28T00:19:09;11.80;69.30
31677;DHT22;18385;51.572;6.578;2022-09-28T00:21:38;11.70;69.40
31677;DHT22;18385;51.572;6.578;2022-09-28T00:24:05;11.70;69.40
31677;DHT22;18385;51.572;6.578;2022-09-28T00:26:39;11.70;69.50
31677;DHT22;18385;51.572;6.578;2022-09-28T00:29:06;11.60;69.60
31677;DHT22;18385;51.572;6.578;2022-09-28T00:31:32;11.60;69.60
31677;DHT22;18385;51.572;6.578;2022-09-28T00:34:00;11.60;69.70
31677;DHT22;18385;51.572;6.578;2022-09-28T00:36:28;11.60;69.70
31677;DHT22;18385;51.572;6.578;2022-09-28T00:38:55;11.60;69.70
31677;DHT22;18385;51.572;6.578;2022-09-28T00:41:25;11.60;69.80
31677;DHT22;18385;51.572;6.578;2022-09-28T00:43:53;11.60;69.90
31677;DHT22;18385;51.572;6.578;2022-09-28T00:46:39;11.60;69.90
31677;DHT22;18385;51.572;6.578;2022-09-28T00:49:08;11.70;70.00
31677;DHT22;18385;51.572;6.578;2022-09-28T00:51:37;11.80;69.90
31677;DHT22;18385;51.572;6.578;2022-09-28T00:54:04;11.80;69.70
31677;DHT22;18385;51.572;6.578;2022-09-28T00:56:32;11.80;69.90
31677;DHT22;18385;51.572;6.578;2022-09-28T00:59:00;11.80;70.50
31677;DHT22;18385;51.572;6.578;2022-09-28T01:01:27;11.90;69.70
31677;DHT22;18385;51.572;6.578;2022-09-28T01:03:52;11.90;69.60
31677;DHT22;18385;51.572;6.578;2022-09-28T01:06:20;11.90;69.60
31677;DHT22;18385;51.572;6.578;2022-09-28T01:08:48;11.90;69.60
31677;DHT22;18385;51.572;6.578;2022-09-28T01:11:17;11.90;69.60
31677;DHT22;18385;51.572;6.578;2022-09-28T01:13:44;11.90;69.80
31677;DHT22;18385;51.572;6.578;2022-09-28T01:24:50;12.30;69.60
31677;DHT22;18385;51.572;6.578;2022-09-28T01:27:49;12.30;69.50
31677;DHT22;18385;51.572;6.578;2022-09-28T01:30:18;12.30;69.30
31677;DHT22;18385;51.572;6.578;2022-09-28T01:35:40;12.40;69.40
31677;DHT22;18385;51.572;6.578;2022-09-28T01:38:23;12.40;69.30
31677;DHT22;18385;51.572;6.578;2022-09-28T01:40:51;12.40;69.40
31677;DHT22;18385;51.572;6.578;2022-09-28T01:43:21;12.30;69.20
31677;DHT22;18385;51.572;6.578;2022-09-28T01:45:54;12.30;69.20
31677;DHT22;18385;51.572;6.578;2022-09-28T01:48:32;12.30;69.30
31677;DHT22;18385;51.572;6.578;2022-09-28T01:51:02;12.20;69.40
31677;DHT22;18385;51.572;6.578;2022-09-28T01:53:40;12.20;69.40
31677;DHT22;18385;51.572;6.578;2022-09-28T01:56:23;12.20;69.50
31677;DHT22;18385;51.572;6.578;2022-09-28T01:59:14;12.10;69.50
31677;DHT22;18385;51.572;6.578;2022-09-28T02:01:57;12.20;69.50
31677;DHT22;18385;51.572;6.578;2022-09-28T02:04:35;12.10;69.60
31677;DHT22;18385;51.572;6.578;2022-09-28T02:07:11;12.10;69.60
31677;DHT22;18385;51.572;6.578;2022-09-28T02:10:17;12.10;69.60
31677;DHT22;18385;51.572;6.578;2022-09-28T02:13:32;12.10;69.70
31677;DHT22;18385;51.572;6.578;2022-09-28T02:16:02;12.10;69.70
31677;DHT22;18385;51.572;6.578;2022-09-28T02:18:29;12.10;69.60
31677;DHT22;18385;51.572;6.578;2022-09-28T02:21:00;12.20;69.70
31677;DHT22;18385;51.572;6.578;2022-09-28T02:23:29;12.20;69.70
31677;DHT22;18385;51.572;6.578;2022-09-28T02:26:02;12.20;69.70
31677;DHT22;18385;51.572;6.578;2022-09-28T02:28:30;12.30;69.60
31677;DHT22;18385;51.572;6.578;2022-09-28T02:30:55;12.30;69.50
31677;DHT22;18385;51.572;6.578;2022-09-28T02:33:29;12.30;69.40
31677;DHT22;18385;51.572;6.578;2022-09-28T02:35:58;12.40;69.60
31677;DHT22;18385;51.572;6.578;2022-09-28T02:38:24;12.40;69.50
31677;DHT22;18385;51.572;6.578;2022-09-28T02:43:47;12.50;69.40
31677;DHT22;18385;51.572;6.578;2022-09-28T02:46:26;12.50;69.40
31677;DHT22;18385;51.572;6.578;2022-09-28T02:49:14;12.50;69.40
31677;DHT22;18385;51.572;6.578;2022-09-28T03:00:44;12.30;69.40
31677;DHT22;18385;51.572;6.578;2022-09-28T03:03:23;12.30;69.60
31677;DHT22;18385;51.572;6.578;2022-09-28T03:06:03;12.30;69.60
31677;DHT22;18385;51.572;6.578;2022-09-28T03:08:44;12.20;69.60
31677;DHT22;18385;51.572;6.578;2022-09-28T03:11:21;12.20;69.70
31677;DHT22;18385;51.572;6.578;2022-09-28T03:13:50;12.20;69.70
31677;DHT22;18385;51.572;6.578;2022-09-28T03:16:18;12.20;69.70
31677;DHT22;18385;51.572;6.578;2022-09-28T03:18:46;12.20;69.80
31677;DHT22;18385;51.572;6.578;2022-09-28T03:21:13;12.20;69.70
31677;DHT22;18385;51.572;6.578;2022-09-28T03:23:39;12.20;69.70
31677;DHT22;18385;51.572;6.578;2022-09-28T03:26:14;12.20;69.70
31677;DHT22;18385;51.572;6.578;2022-09-28T03:28:41;12.20;69.80
31677;DHT22;18385;51.572;6.578;2022-09-28T03:31:11;12.30;69.90
31677;DHT22;18385;51.572;6.578;2022-09-28T03:33:37;12.30;69.90
31677;DHT22;18385;51.572;6.578;2022-09-28T03:36:03;12.30;69.90
31677;DHT22;18385;51.572;6.578;2022-09-28T03:38:29;12.30;69.80
31677;DHT22;18385;51.572;6.578;2022-09-28T03:40:57;12.30;69.80
31677;DHT22;18385;51.572;6.578;2022-09-28T03:43:24;12.30;69.80
31677;DHT22;18385;51.572;6.578;2022-09-28T03:45:56;12.20;69.70
31677;DHT22;18385;51.572;6.578;2022-09-28T03:48:25;12.20;69.80
31677;DHT22;18385;51.572;6.578;2022-09-28T03:50:53;12.10;69.90
31677;DHT22;18385;51.572;6.578;2022-09-28T03:53:19;12.00;70.00
31677;DHT22;18385;51.572;6.578;2022-09-28T03:55:44;11.90;69.90
31677;DHT22;18385;51.572;6.578;2022-09-28T03:58:10;11.80;70.00
31677;DHT22;18385;51.572;6.578;2022-09-28T04:00:37;11.70;70.20
31677;DHT22;18385;51.572;6.578;2022-09-28T04:03:03;11.70;70.40
31677;DHT22;18385;51.572;6.578;2022-09-28T04:05:29;11.80;70.60
31677;DHT22;18385;51.572;6.578;2022-09-28T04:07:55;11.80;70.50
31677;DHT22;18385;51.572;6.578;2022-09-28T04:10:23;11.80;70.50
31677;DHT22;18385;51.572;6.578;2022-09-28T04:12:48;11.80;70.50
31677;DHT22;18385;51.572;6.578;2022-09-28T04:15:16;11.80;70.50
31677;DHT22;18385;51.572;6.578;2022-09-28T04:17:41;11.70;70.40
31677;DHT22;18385;51.572;6.578;2022-09-28T04:20:19;11.70;70.50
31677;DHT22;18385;51.572;6.578;2022-09-28T04:23:01;11.70;70.50
31677;DHT22;18385;51.572;6.578;2022-09-28T04:25:27;11.80;70.70
31677;DHT22;18385;51.572;6.578;2022-09-28T04:27:54;11.90;70.60
31677;DHT22;18385;51.572;6.578;2022-09-28T04:30:38;11.90;70.50
31677;DHT22;18385;51.572;6.578;2022-09-28T04:33:04;11.90;70.50
31677;DHT22;18385;51.572;6.578;2022-09-28T04:35:30;11.90;70.50
31677;DHT22;18385;51.572;6.578;2022-09-28T04:37:56;11.90;70.60
31677;DHT22;18385;51.572;6.578;2022-09-28T04:40:22;11.90;70.60
31677;DHT22;18385;51.572;6.578;2022-09-28T04:42:55;11.90;70.50
31677;DHT22;18385;51.572;6.578;2022-09-28T04:45:22;12.00;70.50
31677;DHT22;18385;51.572;6.578;2022-09-28T04:47:48;12.00;70.40
31677;DHT22;18385;51.572;6.578;2022-09-28T04:50:34;12.00;70.40
31677;DHT22;18385;51.572;6.578;2022-09-28T04:53:14;12.00;70.50
31677;DHT22;18385;51.572;6.578;2022-09-28T04:55:40;12.00;70.50
31677;DHT22;18385;51.572;6.578;2022-09-28T04:58:06;12.00;70.50
31677;DHT22;18385;51.572;6.578;2022-09-28T05:00:32;12.00;70.50
31677;DHT22;18385;51.572;6.578;2022-09-28T05:03:23;12.00;70.50
31677;DHT22;18385;51.572;6.578;2022-09-28T05:06:04;12.10;70.60
31677;DHT22;18385;51.572;6.578;2022-09-28T05:08:41;12.10;70.40
31677;DHT22;18385;51.572;6.578;2022-09-28T05:11:10;12.20;70.50
31677;DHT22;18385;51.572;6.578;2022-09-28T05:13:42;12.20;70.50
31677;DHT22;18385;51.572;6.578;2022-09-28T05:16:11;12.10;70.30
31677;DHT22;18385;51.572;6.578;2022-09-28T05:18:57;12.20;70.40
31677;DHT22;18385;51.572;6.578;2022-09-28T05:21:23;12.10;70.40
31677;DHT22;18385;51.572;6.578;2022-09-28T05:23:51;12.20;70.50
31677;DHT22;18385;51.572;6.578;2022-09-28T05:26:17;12.20;70.50
31677;DHT22;18385;51.572;6.578;2022-09-28T05:28:43;12.20;70.50
31677;DHT22;18385;51.572;6.578;2022-09-28T05:31:27;12.10;70.40
31677;DHT22;18385;51.572;6.578;2022-09-28T05:34:16;12.10;70.50
31677;DHT22;18385;51.572;6.578;2022-09-28T05:36:42;12.10;70.60
31677;DHT22;18385;51.572;6.578;2022-09-28T05:39:10;12.10;70.60
31677;DHT22;18385;51.572;6.578;2022-09-28T05:41:35;12.10;70.50
31677;DHT22;18385;51.572;6.578;2022-09-28T05:44:01;12.20;70.60
31677;DHT22;18385;51.572;6.578;2022-09-28T05:46:28;12.10;70.50
31677;DHT22;18385;51.572;6.578;2022-09-28T05:48:57;12.20;70.60
31677;DHT22;18385;51.572;6.578;2022-09-28T05:51:25;12.20;70.70
31677;DHT22;18385;51.572;6.578;2022-09-28T05:53:56;12.20;70.70
31677;DHT22;18385;51.572;6.578;2022-09-28T05:56:24;12.20;70.70
31677;DHT22;18385;51.572;6.578;2022-09-28T05:58:51;12.20;70.60
31677;DHT22;18385;51.572;6.578;2022-09-28T06:01:18;12.20;70.60
31677;DHT22;18385;51.572;6.578;2022-09-28T06:03:44;12.30;70.60
31677;DHT22;18385;51.572;6.578;2022-09-28T06:06:10;12.30;70.80
31677;DHT22;18385;51.572;6.578;2022-09-28T06:08:37;12.30;70.60
31677;DHT22;18385;51.572;6.578;2022-09-28T06:11:27;12.40;70.80
31677;DHT22;18385;51.572;6.578;2022-09-28T06:13:54;12.40;71.40
31677;DHT22;18385;51.572;6.578;2022-09-28T06:16:20;12.50;70.60
31677;DHT22;18385;51.572;6.578;2022-09-28T06:18:46;12.50;70.50
31677;DHT22;18385;51.572;6.578;2022-09-28T06:21:31;12.60;70.60
31677;DHT22;18385;51.572;6.578;2022-09-28T06:23:56;12.60;70.50
31677;DHT22;18385;51.572;6.578;2022-09-28T06:26:23;12.70;70.50
31677;DHT22;18385;51.572;6.578;2022-09-28T06:28:48;12.70;70.40
31677;DHT22;18385;51.572;6.578;2022-09-28T06:31:15;12.70;70.30
31677;DHT22;18385;51.572;6.578;2022-09-28T06:33:47;12.70;70.40
31677;DHT22;18385;51.572;6.578;2022-09-28T06:36:13;12.70;70.30
31677;DHT22;18385;51.572;6.578;2022-09-28T06:38:39;12.60;70.50
31677;DHT22;18385;51.572;6.578;2022-09-28T06:41:05;12.60;70.50
31677;DHT22;18385;51.572;6.578;2022-09-28T06:43:31;12.70;70.60
31677;DHT22;18385;51.572;6.578;2022-09-28T06:46:21;12.70;70.40
31677;DHT22;18385;51.572;6.578;2022-09-28T06:48:49;12.60;70.50
31677;DHT22;18385;51.572;6.578;2022-09-28T06:51:31;12.60;70.70
31677;DHT22;18385;51.572;6.578;2022-09-28T06:54:08;12.60;70.60
31677;DHT22;18385;51.572;6.578;2022-09-28T06:56:57;12.70;70.60
31677;DHT22;18385;51.572;6.578;2022-09-28T06:59:22;12.70;70.70
31677;DHT22;18385;51.572;6.578;2022-09-28T07:01:49;12.70;70.60
31677;DHT22;18385;51.572;6.578;2022-09-28T07:04:23;12.70;70.60
31677;DHT22;18385;51.572;6.578;2022-09-28T07:07:27;12.70;70.70
31677;DHT22;18385;51.572;6.578;2022-09-28T07:10:16;12.80;70.60
31677;DHT22;18385;51.572;6.578;2022-09-28T07:13:02;12.80;70.60
31677;DHT22;18385;51.572;6.578;2022-09-28T07:15:33;12.90;70.60
31677;DHT22;18385;51.572;6.578;2022-09-28T07:18:01;12.90;70.40
31677;DHT22;18385;51.572;6.578;2022-09-28T07:20:27;12.90;70.40
31677;DHT22;18385;51.572;6.578;2022-09-28T07:22:58;12.90;70.30
31677;DHT22;18385;51.572;6.578;2022-09-28T07:25:26;13.00;70.40
31677;DHT22;18385;51.572;6.578;2022-09-28T07:28:16;13.00;70.40
31677;DHT22;18385;51.572;6.578;2022-09-28T07:31:08;13.00;70.40
31677;DHT22;18385;51.572;6.578;2022-09-28T07:33:50;13.10;70.40
31677;DHT22;18385;51.572;6.578;2022-09-28T07:36:49;13.20;70.30
31677;DHT22;18385;51.572;6.578;2022-09-28T07:39:15;13.20;70.20
31677;DHT22;18385;51.572;6.578;2022-09-28T07:41:41;13.20;70.20
31677;DHT22;18385;51.572;6.578;2022-09-28T07:44:08;13.30;70.10
31677;DHT22;18385;51.572;6.578;2022-09-28T07:46:35;13.40;70.00
31677;DHT22;18385;51.572;6.578;2022-09-28T07:49:10;13.40;69.90
31677;DHT22;18385;51.572;6.578;2022-09-28T07:51:58;13.50;70.00
31677;DHT22;18385;51.572;6.578;2022-09-28T07:54:36;13.60;70.10
31677;DHT22;18385;51.572;6.578;2022-09-28T07:57:23;13.70;69.90
31677;DHT22;18385;51.572;6.578;2022-09-28T07:59:53;13.70;69.60
31677;DHT22;18385;51.572;6.578;2022-09-28T08:02:37;13.80;69.60
31677;DHT22;18385;51.572;6.578;2022-09-28T08:05:04;13.90;69.60
31677;DHT22;18385;51.572;6.578;2022-09-28T08:07:31;13.90;69.20
31677;DHT22;18385;51.572;6.578;2022-09-28T08:10:02;13.90;69.20
31677;DHT22;18385;51.572;6.578;2022-09-28T08:12:28;13.90;69.30
31677;DHT22;18385;51.572;6.578;2022-09-28T08:15:09;13.80;69.00
31677;DHT22;18385;51.572;6.578;2022-09-28T08:17:49;13.60;69.00
31677;DHT22;18385;51.572;6.578;2022-09-28T08:20:17;13.50;69.70
31677;DHT22;18385;51.572;6.578;2022-09-28T08:23:06;13.70;70.10
31677;DHT22;18385;51.572;6.578;2022-09-28T08:25:34;13.70;69.50
31677;DHT22;18385;51.572;6.578;2022-09-28T08:28:05;13.60;69.30
31677;DHT22;18385;51.572;6.578;2022-09-28T08:30:34;13.60;69.60
31677;DHT22;18385;51.572;6.578;2022-09-28T08:33:19;13.70;69.60
31677;DHT22;18385;51.572;6.578;2022-09-28T08:35:58;13.90;70.10
31677;DHT22;18385;51.572;6.578;2022-09-28T08:38:46;14.20;69.60
31677;DHT22;18385;51.572;6.578;2022-09-28T08:44:57;14.40;69.10
31677;DHT22;18385;51.572;6.578;2022-09-28T08:50:50;14.80;69.10
31677;DHT22;18385;51.572;6.578;2022-09-28T08:54:00;15.10;68.70
31677;DHT22;18385;51.572;6.578;2022-09-28T08:56:47;15.20;68.20
31677;DHT22;18385;51.572;6.578;2022-09-28T08:59:15;15.30;68.00
31677;DHT22;18385;51.572;6.578;2022-09-28T09:01:52;15.30;68.30
31677;DHT22;18385;51.572;6.578;2022-09-28T09:04:20;15.40;68.10
31677;DHT22;18385;51.572;6.578;2022-09-28T09:08:10;15.50;67.90
31677;DHT22;18385;51.572;6.578;2022-09-28T09:16:23;15.90;67.20
31677;DHT22;18385;51.572;6.578;2022-09-28T09:30:19;15.40;68.40
31677;DHT22;18385;51.572;6.578;2022-09-28T09:45:01;15.70;66.90
31677;DHT22;18385;51.572;6.578;2022-09-28T09:47:38;15.50;66.80
31677;DHT22;18385;51.572;6.578;2022-09-28T09:53:30;15.70;67.80
31677;DHT22;18385;51.572;6.578;2022-09-28T09:56:04;16.00;67.10
31677;DHT22;18385;51.572;6.578;2022-09-28T09:58:43;16.10;66.60
31677;DHT22;18385;51.572;6.578;2022-09-28T10:01:28;16.20;66.70
31677;DHT22;18385;51.572;6.578;2022-09-28T10:04:25;16.30;66.40
31677;DHT22;18385;51.572;6.578;2022-09-28T10:06:59;16.50;66.10
31677;DHT22;18385;51.572;6.578;2022-09-28T10:09:38;16.70;66.10
31677;DHT22;18385;51.572;6.578;2022-09-28T10:12:27;16.90;65.80
31677;DHT22;18385;51.572;6.578;2022-09-28T10:14:54;17.00;65.70
31677;DHT22;18385;51.572;6.578;2022-09-28T10:17:22;17.20;65.60
31677;DHT22;18385;51.572;6.578;2022-09-28T10:20:28;17.20;64.90
31677;DHT22;18385;51.572;6.578;2022-09-28T10:23:18;17.20;64.60
31677;DHT22;18385;51.572;6.578;2022-09-28T10:25:49;17.30;64.60
31677;DHT22;18385;51.572;6.578;2022-09-28T10:28:20;17.30;64.50
31677;DHT22;18385;51.572;6.578;2022-09-28T10:30:48;17.20;64.00
31677;DHT22;18385;51.572;6.578;2022-09-28T10:33:30;17.00;64.10
31677;DHT22;18385;51.572;6.578;2022-09-28T10:35:58;16.90;64.40
31677;DHT22;18385;51.572;6.578;2022-09-28T10:38:25;16.70;64.60
31677;DHT22;18385;51.572;6.578;2022-09-28T10:40:57;16.60;64.70
31677;DHT22;18385;51.572;6.578;2022-09-28T10:43:36;16.60;65.00
31677;DHT22;18385;51.572;6.578;2022-09-28T10:46:20;16.60;65.30
31677;DHT22;18385;51.572;6.578;2022-09-28T10:51:19;16.90;64.80
31677;DHT22;18385;51.572;6.578;2022-09-28T10:54:01;17.10;64.90
31677;DHT22;18385;51.572;6.578;2022-09-28T10:56:42;17.30;64.30
31677;DHT22;18385;51.572;6.578;2022-09-28T11:01:59;17.50;63.80
31677;DHT22;18385;51.572;6.578;2022-09-28T11:04:28;17.50;63.50
31677;DHT22;18385;51.572;6.578;2022-09-28T11:06:56;17.50;63.40
31677;DHT22;18385;51.572;6.578;2022-09-28T11:09:37;17.60;63.60
31677;DHT22;18385;51.572;6.578;2022-09-28T11:12:14;17.80;63.70
31677;DHT22;18385;51.572;6.578;2022-09-28T11:14:41;18.00;63.00
31677;DHT22;18385;51.572;6.578;2022-09-28T11:17:36;18.00;63.10
31677;DHT22;18385;51.572;6.578;2022-09-28T11:22:58;18.30;62.40
31677;DHT22;18385;51.572;6.578;2022-09-28T11:25:29;18.30;62.00
31677;DHT22;18385;51.572;6.578;2022-09-28T11:27:56;18.10;61.90
31677;DHT22;18385;51.572;6.578;2022-09-28T11:30:43;18.00;62.20
31677;DHT22;18385;51.572;6.578;2022-09-28T11:33:35;17.90;61.80
31677;DHT22;18385;51.572;6.578;2022-09-28T11:39:22;18.00;63.20
31677;DHT22;18385;51.572;6.578;2022-09-28T11:45:46;18.30;61.90
31677;DHT22;18385;51.572;6.578;2022-09-28T11:47:54;18.30;61.50
31677;DHT22;18385;51.572;6.578;2022-09-28T11:53:34;18.30;61.10
31677;DHT22;18385;51.572;6.578;2022-09-28T11:56:07;18.10;60.80
31677;DHT22;18385;51.572;6.578;2022-09-28T11:59:11;17.90;61.10
31677;DHT22;18385;51.572;6.578;2022-09-28T12:01:57;17.70;61.40
31677;DHT22;18385;51.572;6.578;2022-09-28T12:05:08;17.60;61.70
31677;DHT22;18385;51.572;6.578;2022-09-28T12:07:46;17.50;61.70
31677;DHT22;18385;51.572;6.578;2022-09-28T12:10:41;17.50;61.60
31677;DHT22;18385;51.572;6.578;2022-09-28T12:13:24;17.50;61.90
31677;DHT22;18385;51.572;6.578;2022-09-28T12:24:02;18.90;61.00
31677;DHT22;18385;51.572;6.578;2022-09-28T12:29:32;19.00;58.90
31677;DHT22;18385;51.572;6.578;2022-09-28T12:32:28;18.80;59.10
31677;DHT22;18385;51.572;6.578;2022-09-28T12:34:56;18.70;59.40
31677;DHT22;18385;51.572;6.578;2022-09-28T12:37:41;18.70;59.80
31677;DHT22;18385;51.572;6.578;2022-09-28T12:43:33;18.80;59.30
31677;DHT22;18385;51.572;6.578;2022-09-28T12:46:41;18.60;59.20
31677;DHT22;18385;51.572;6.578;2022-09-28T12:51:50;18.50;59.30
31677;DHT22;18385;51.572;6.578;2022-09-28T12:54:47;18.50;59.30
31677;DHT22;18385;51.572;6.578;2022-09-28T13:08:52;18.40;58.90
31677;DHT22;18385;51.572;6.578;2022-09-28T13:11:32;18.20;58.90
31677;DHT22;18385;51.572;6.578;2022-09-28T13:20:11;17.70;59.60
31677;DHT22;18385;51.572;6.578;2022-09-28T13:22:53;17.70;60.00
31677;DHT22;18385;51.572;6.578;2022-09-28T13:25:24;17.60;60.70
31677;DHT22;18385;51.572;6.578;2022-09-28T13:28:02;17.50;59.90
31677;DHT22;18385;51.572;6.578;2022-09-28T13:30:28;17.40;59.80
31677;DHT22;18385;51.572;6.578;2022-09-28T13:32:56;17.20;59.50
31677;DHT22;18385;51.572;6.578;2022-09-28T13:35:23;16.80;59.70
31677;DHT22;18385;51.572;6.578;2022-09-28T13:49:30;16.10;62.40
31677;DHT22;18385;51.572;6.578;2022-09-28T13:52:08;16.10;62.60
31677;DHT22;18385;51.572;6.578;2022-09-28T13:54:51;16.10;62.60
31677;DHT22;18385;51.572;6.578;2022-09-28T14:09:05;16.80;62.60
31677;DHT22;18385;51.572;6.578;2022-09-28T14:16:31;16.70;62.50
31677;DHT22;18385;51.572;6.578;2022-09-28T14:19:15;16.70;62.50
31677;DHT22;18385;51.572;6.578;2022-09-28T14:21:49;16.70;62.50
31677;DHT22;18385;51.572;6.578;2022-09-28T14:29:37;16.90;62.30
31677;DHT22;18385;51.572;6.578;2022-09-28T14:32:20;16.90;62.20
31677;DHT22;18385;51.572;6.578;2022-09-28T14:34:53;16.80;62.10
31677;DHT22;18385;51.572;6.578;2022-09-28T14:40:16;16.60;61.60
31677;DHT22;18385;51.572;6.578;2022-09-28T14:43:33;16.50;61.60
31677;DHT22;18385;51.572;6.578;2022-09-28T14:48:47;16.40;62.00
31677;DHT22;18385;51.572;6.578;2022-09-28T14:59:20;16.10;61.90
31677;DHT22;18385;51.572;6.578;2022-09-28T15:01:49;16.00;61.90
31677;DHT22;18385;51.572;6.578;2022-09-28T15:04:15;16.00;62.20
31677;DHT22;18385;51.572;6.578;2022-09-28T15:06:46;15.90;62.30
31677;DHT22;18385;51.572;6.578;2022-09-28T15:09:48;15.90;62.20
31677;DHT22;18385;51.572;6.578;2022-09-28T15:12:26;16.00;62.30
31677;DHT22;18385;51.572;6.578;2022-09-28T15:14:58;15.90;62.10
31677;DHT22;18385;51.572;6.578;2022-09-28T15:17:29;16.00;62.10
31677;DHT22;18385;51.572;6.578;2022-09-28T15:22:25;16.00;62.20
31677;DHT22;18385;51.572;6.578;2022-09-28T15:24:58;15.80;62.10
31677;DHT22;18385;51.572;6.578;2022-09-28T15:27:24;15.90;62.20
31677;DHT22;18385;51.572;6.578;2022-09-28T15:32:50;15.90;62.10
31677;DHT22;18385;51.572;6.578;2022-09-28T15:35:24;15.80;62.30
31677;DHT22;18385;51.572;6.578;2022-09-28T15:37:52;15.80;62.40
31677;DHT22;18385;51.572;6.578;2022-09-28T15:40:26;15.80;62.50
31677;DHT22;18385;51.572;6.578;2022-09-28T15:42:54;15.80;62.40
31677;DHT22;18385;51.572;6.578;2022-09-28T15:45:24;15.80;62.40
31677;DHT22;18385;51.572;6.578;2022-09-28T15:47:54;15.70;62.40
31677;DHT22;18385;51.572;6.578;2022-09-28T15:50:26;15.60;62.40
31677;DHT22;18385;51.572;6.578;2022-09-28T15:52:56;15.60;62.50
31677;DHT22;18385;51.572;6.578;2022-09-28T15:55:27;15.40;62.40
31677;DHT22;18385;51.572;6.578;2022-09-28T16:00:37;15.20;62.70
31677;DHT22;18385;51.572;6.578;2022-09-28T16:11:15;14.20;64.20
31677;DHT22;18385;51.572;6.578;2022-09-28T16:13:56;14.00;64.40
31677;DHT22;18385;51.572;6.578;2022-09-28T16:16:34;14.00;64.70
31677;DHT22;18385;51.572;6.578;2022-09-28T16:19:01;13.90;64.70
31677;DHT22;18385;51.572;6.578;2022-09-28T16:21:38;13.90;64.90
31677;DHT22;18385;51.572;6.578;2022-09-28T16:24:17;13.90;65.20
31677;DHT22;18385;51.572;6.578;2022-09-28T16:26:44;13.90;65.20
31677;DHT22;18385;51.572;6.578;2022-09-28T16:29:32;13.90;65.10
31677;DHT22;18385;51.572;6.578;2022-09-28T16:35:15;14.00;65.30
31677;DHT22;18385;51.572;6.578;2022-09-28T16:37:43;14.10;65.40
31677;DHT22;18385;51.572;6.578;2022-09-28T16:40:09;14.10;65.30
31677;DHT22;18385;51.572;6.578;2022-09-28T16:42:35;14.20;65.30
31677;DHT22;18385;51.572;6.578;2022-09-28T16:45:03;14.20;65.30
31677;DHT22;18385;51.572;6.578;2022-09-28T16:47:30;14.20;65.30
31677;DHT22;18385;51.572;6.578;2022-09-28T16:50:03;14.30;65.40
31677;DHT22;18385;51.572;6.578;2022-09-28T16:52:28;14.30;65.30
31677;DHT22;18385;51.572;6.578;2022-09-28T16:55:13;14.30;65.40
31677;DHT22;18385;51.572;6.578;2022-09-28T16:57:43;14.30;65.50
31677;DHT22;18385;51.572;6.578;2022-09-28T17:00:29;14.30;65.50
31677;DHT22;18385;51.572;6.578;2022-09-28T17:02:55;14.30;65.60
31677;DHT22;18385;51.572;6.578;2022-09-28T17:05:22;14.30;65.60
31677;DHT22;18385;51.572;6.578;2022-09-28T17:08:00;14.30;65.60
31677;DHT22;18385;51.572;6.578;2022-09-28T17:10:37;14.30;65.70
31677;DHT22;18385;51.572;6.578;2022-09-28T17:13:04;14.30;65.70
31677;DHT22;18385;51.572;6.578;2022-09-28T17:15:30;14.30;65.40
31677;DHT22;18385;51.572;6.578;2022-09-28T17:17:56;14.20;65.30
31677;DHT22;18385;51.572;6.578;2022-09-28T17:20:27;14.20;65.40
31677;DHT22;18385;51.572;6.578;2022-09-28T17:22:54;14.20;65.50
31677;DHT22;18385;51.572;6.578;2022-09-28T17:25:22;14.20;65.60
31677;DHT22;18385;51.572;6.578;2022-09-28T17:27:49;14.20;65.80
31677;DHT22;18385;51.572;6.578;2022-09-28T17:30:15;14.20;65.80
31677;DHT22;18385;51.572;6.578;2022-09-28T17:32:42;14.20;66.00
31677;DHT22;18385;51.572;6.578;2022-09-28T17:35:19;14.20;66.00
31677;DHT22;18385;51.572;6.578;2022-09-28T17:37:45;14.20;66.10
31677;DHT22;18385;51.572;6.578;2022-09-28T17:40:17;14.20;66.00
31677;DHT22;18385;51.572;6.578;2022-09-28T17:42:44;14.20;66.20
31677;DHT22;18385;51.572;6.578;2022-09-28T17:45:11;14.10;66.00
31677;DHT22;18385;51.572;6.578;2022-09-28T17:47:37;14.10;66.10
31677;DHT22;18385;51.572;6.578;2022-09-28T17:50:17;14.10;66.10
31677;DHT22;18385;51.572;6.578;2022-09-28T17:52:43;14.10;66.30
31677;DHT22;18385;51.572;6.578;2022-09-28T17:55:08;14.00;66.20
31677;DHT22;18385;51.572;6.578;2022-09-28T17:57:34;14.00;66.30
31677;DHT22;18385;51.572;6.578;2022-09-28T18:00:00;14.00;66.30
31677;DHT22;18385;51.572;6.578;2022-09-28T18:02:26;13.90;66.40
31677;DHT22;18385;51.572;6.578;2022-09-28T18:04:51;13.90;66.50
31677;DHT22;18385;51.572;6.578;2022-09-28T18:07:17;13.80;66.50
31677;DHT22;18385;51.572;6.578;2022-09-28T18:09:43;13.70;66.70
31677;DHT22;18385;51.572;6.578;2022-09-28T18:12:08;13.70;66.80
31677;DHT22;18385;51.572;6.578;2022-09-28T18:14:34;13.60;66.90
31677;DHT22;18385;51.572;6.578;2022-09-28T18:17:04;13.60;66.90
31677;DHT22;18385;51.572;6.578;2022-09-28T18:19:29;13.60;66.90
31677;DHT22;18385;51.572;6.578;2022-09-28T18:21:55;13.50;67.00
31677;DHT22;18385;51.572;6.578;2022-09-28T18:24:23;13.50;67.20
31677;DHT22;18385;51.572;6.578;2022-09-28T18:26:48;13.50;67.30
31677;DHT22;18385;51.572;6.578;2022-09-28T18:29:16;13.40;67.20
31677;DHT22;18385;51.572;6.578;2022-09-28T18:31:41;13.40;67.30
31677;DHT22;18385;51.572;6.578;2022-09-28T18:34:07;13.30;67.30
31677;DHT22;18385;51.572;6.578;2022-09-28T18:36:35;13.30;67.40
31677;DHT22;18385;51.572;6.578;2022-09-28T18:39:00;13.30;67.60
31677;DHT22;18385;51.572;6.578;2022-09-28T18:41:27;13.20;67.70
31677;DHT22;18385;51.572;6.578;2022-09-28T18:43:52;13.20;67.70
31677;DHT22;18385;51.572;6.578;2022-09-28T18:46:28;13.20;67.70
31677;DHT22;18385;51.572;6.578;2022-09-28T18:48:55;13.20;67.80
31677;DHT22;18385;51.572;6.578;2022-09-28T18:51:20;13.10;67.90
31677;DHT22;18385;51.572;6.578;2022-09-28T18:53:46;13.10;67.90
31677;DHT22;18385;51.572;6.578;2022-09-28T18:56:15;13.10;68.00
31677;DHT22;18385;51.572;6.578;2022-09-28T18:58:43;13.10;68.10
31677;DHT22;18385;51.572;6.578;2022-09-28T19:01:15;13.00;68.10
31677;DHT22;18385;51.572;6.578;2022-09-28T19:03:42;13.00;68.20
31677;DHT22;18385;51.572;6.578;2022-09-28T19:06:09;12.90;68.10
31677;DHT22;18385;51.572;6.578;2022-09-28T19:08:35;12.90;68.20
31677;DHT22;18385;51.572;6.578;2022-09-28T19:11:11;12.80;69.10